createdAt,value
2022-12-08T00:01:15.241Z,49.86
2022-12-08T00:03:42.367Z,49.61
2022-12-08T00:06:36.526Z,49.67
2022-12-08T00:09:21.957Z,49.66
2022-12-08T00:11:59.803Z,49.79
2022-12-08T00:14:28.254Z,49.71
2022-12-08T00:16:55.053Z,49.55
2022-12-08T00:19:22.081Z,49.28
2022-12-08T00:21:48.669Z,49.34
2022-12-08T00:24:15.390Z,49.61
2022-12-08T00:26:41.917Z,49.64
2022-12-08T00:29:13.179Z,49.87
2022-12-08T00:31:43.753Z,49.50
2022-12-08T00:34:12.405Z,49.50
2022-12-08T00:36:38.913Z,49.87
2022-12-08T00:39:06.054Z,49.61
2022-12-08T00:41:51.406Z,49.82
2022-12-08T00:44:18.916Z,50.20
2022-12-08T00:46:46.906Z,50.05
2022-12-08T00:49:14.439Z,49.68
2022-12-08T00:51:42.360Z,49.73
2022-12-08T00:54:09.525Z,49.51
2022-12-08T00:56:36.283Z,49.78
2022-12-08T00:59:04.998Z,49.65
2022-12-08T01:01:31.651Z,49.47
2022-12-08T01:03:58.233Z,49.66
2022-12-08T01:06:25.719Z,50.05
2022-12-08T01:08:52.292Z,50.24
2022-12-08T01:11:19.704Z,50.10
2022-12-08T01:13:46.774Z,50.28
2022-12-08T01:16:21.572Z,50.09
2022-12-08T01:18:48.686Z,49.80
2022-12-08T01:21:15.288Z,50.20
2022-12-08T01:23:41.779Z,50.21
2022-12-08T01:26:10.495Z,50.02
2022-12-08T01:28:37.796Z,49.86
2022-12-08T01:31:04.762Z,49.90
2022-12-08T01:33:32.116Z,49.83
2022-12-08T01:36:04.225Z,50.22
2022-12-08T01:38:31.233Z,50.20
2022-12-08T01:40:58.207Z,50.09
2022-12-08T01:43:24.717Z,50.20
2022-12-08T01:45:51.251Z,50.18
2022-12-08T01:48:22.378Z,49.95
2022-12-08T01:50:49.809Z,49.61
2022-12-08T01:53:32.847Z,50.24
2022-12-08T01:56:05.616Z,50.17
2022-12-08T01:58:36.120Z,50.23
2022-12-08T02:01:02.851Z,50.14
2022-12-08T02:03:44.103Z,50.44
2022-12-08T02:06:11.607Z,50.27
2022-12-08T02:08:41.257Z,50.27
2022-12-08T02:11:11.968Z,50.47
2022-12-08T02:13:40.409Z,50.20
2022-12-08T02:16:16.098Z,50.42
2022-12-08T02:19:32.169Z,50.46
2022-12-08T02:22:09.095Z,50.72
2022-12-08T02:24:35.668Z,50.94
2022-12-08T02:27:23.125Z,50.59
2022-12-08T02:30:08.016Z,50.50
2022-12-08T02:33:21.760Z,50.38
2022-12-08T02:36:10.352Z,50.57
2022-12-08T02:38:49.307Z,50.56
2022-12-08T02:41:29.158Z,50.67
2022-12-08T02:44:12.253Z,50.53
2022-12-08T02:46:46.513Z,50.72
2022-12-08T02:49:15.131Z,50.84
2022-12-08T02:51:41.620Z,50.64
2022-12-08T02:54:08.976Z,50.45
2022-12-08T02:56:44.514Z,50.66
2022-12-08T02:59:32.547Z,50.70
2022-12-08T03:02:02.225Z,50.41
2022-12-08T03:04:31.685Z,50.59
2022-12-08T03:07:34.736Z,50.50
2022-12-08T03:10:16.135Z,50.72
2022-12-08T03:12:53.787Z,50.51
2022-12-08T03:15:21.766Z,50.30
2022-12-08T03:17:53.157Z,50.45
2022-12-08T03:20:23.661Z,50.65
2022-12-08T03:22:55.549Z,50.49
2022-12-08T03:25:24.676Z,50.74
2022-12-08T03:27:52.216Z,50.62
2022-12-08T03:30:18.811Z,50.68
2022-12-08T03:32:54.791Z,50.58
2022-12-08T03:35:25.965Z,50.28
2022-12-08T03:38:01.149Z,50.95
2022-12-08T03:40:27.668Z,50.74
2022-12-08T03:42:54.172Z,50.77
2022-12-08T03:45:21.460Z,50.93
2022-12-08T03:47:47.935Z,50.62
2022-12-08T03:50:14.492Z,50.61
2022-12-08T03:52:40.984Z,50.69
2022-12-08T03:55:07.889Z,50.76
2022-12-08T03:57:34.503Z,50.03
2022-12-08T04:00:01.315Z,49.85
2022-12-08T04:02:27.958Z,49.37
2022-12-08T04:04:54.508Z,49.63
2022-12-08T04:07:21.007Z,49.50
2022-12-08T04:09:47.572Z,49.74
2022-12-08T04:12:14.132Z,50.05
2022-12-08T04:14:40.633Z,50.09
2022-12-08T04:17:07.162Z,50.00
2022-12-08T04:19:33.659Z,49.75
2022-12-08T04:22:00.219Z,50.07
2022-12-08T04:24:26.945Z,50.13
2022-12-08T04:26:53.531Z,49.48
2022-12-08T04:29:20.082Z,50.08
2022-12-08T04:31:46.654Z,49.87
2022-12-08T04:34:13.273Z,49.84
2022-12-08T04:36:39.805Z,49.94
2022-12-08T04:39:06.780Z,49.94
2022-12-08T04:41:33.376Z,49.87
2022-12-08T04:43:59.884Z,49.79
2022-12-08T04:46:26.435Z,49.70
2022-12-08T04:48:53.076Z,50.59
2022-12-08T04:51:20.092Z,50.57
2022-12-08T04:53:47.375Z,49.99
2022-12-08T04:56:18.908Z,49.79
2022-12-08T04:58:45.713Z,49.94
2022-12-08T05:01:12.736Z,49.85
2022-12-08T05:03:39.382Z,50.00
2022-12-08T05:06:06.110Z,49.81
2022-12-08T05:08:33.192Z,49.91
2022-12-08T05:11:08.696Z,49.83
2022-12-08T05:13:35.272Z,50.02
2022-12-08T05:16:03.854Z,49.80
2022-12-08T05:18:30.489Z,50.05
2022-12-08T05:20:57.073Z,50.04
2022-12-08T05:23:23.654Z,50.12
2022-12-08T05:25:50.223Z,49.98
2022-12-08T05:28:40.778Z,50.11
2022-12-08T05:31:03.244Z,50.14
2022-12-08T05:33:29.770Z,50.00
2022-12-08T05:35:56.333Z,49.75
2022-12-08T05:38:22.902Z,49.92
2022-12-08T05:40:49.585Z,50.26
2022-12-08T05:43:16.123Z,49.93
2022-12-08T05:45:42.742Z,50.30
2022-12-08T05:48:09.346Z,50.49
2022-12-08T05:50:35.915Z,50.44
2022-12-08T05:53:04.391Z,50.42
2022-12-08T05:55:30.937Z,50.23
2022-12-08T05:57:57.507Z,50.32
2022-12-08T06:00:24.052Z,50.68
2022-12-08T06:02:50.765Z,50.49
2022-12-08T06:05:17.453Z,50.45
2022-12-08T06:07:44.015Z,50.29
2022-12-08T06:10:10.944Z,51.10
2022-12-08T06:12:37.463Z,50.33
2022-12-08T06:15:04.387Z,50.11
2022-12-08T06:17:30.929Z,50.17
2022-12-08T06:19:57.486Z,50.48
2022-12-08T06:22:24.203Z,50.92
2022-12-08T06:24:50.704Z,51.15
2022-12-08T06:27:17.200Z,50.89
2022-12-08T06:29:43.688Z,50.36
2022-12-08T06:32:11.604Z,50.42
2022-12-08T06:34:38.278Z,50.57
2022-12-08T06:37:04.775Z,50.51
2022-12-08T06:39:31.293Z,50.46
2022-12-08T06:42:16.467Z,50.96
2022-12-08T06:44:43.407Z,50.90
2022-12-08T06:47:09.916Z,50.73
2022-12-08T06:49:36.446Z,50.70
2022-12-08T06:52:03.010Z,50.69
2022-12-08T06:54:29.523Z,50.83
2022-12-08T06:56:56.075Z,50.53
2022-12-08T06:59:22.697Z,50.67
2022-12-08T07:01:49.278Z,50.62
2022-12-08T07:04:15.854Z,50.94
2022-12-08T07:06:42.496Z,51.02
2022-12-08T07:09:09.050Z,50.77
2022-12-08T07:11:35.699Z,50.53
2022-12-08T07:14:02.704Z,50.47
2022-12-08T07:16:29.273Z,50.52
2022-12-08T07:18:55.814Z,50.40
2022-12-08T07:21:22.669Z,50.36
2022-12-08T07:23:54.415Z,50.26
2022-12-08T07:26:24.400Z,50.53
2022-12-08T07:28:50.887Z,50.39
2022-12-08T07:31:20.251Z,50.51
2022-12-08T07:33:47.543Z,51.28
2022-12-08T07:36:14.351Z,50.75
2022-12-08T07:38:40.886Z,50.79
2022-12-08T07:41:12.343Z,50.10
2022-12-08T07:43:38.891Z,49.63
2022-12-08T07:46:05.556Z,49.90
2022-12-08T07:48:32.167Z,49.83
2022-12-08T07:51:03.727Z,50.31
2022-12-08T07:53:31.166Z,49.92
2022-12-08T07:55:57.991Z,50.10
2022-12-08T07:58:25.633Z,50.20
2022-12-08T08:00:52.539Z,50.15
2022-12-08T08:03:19.235Z,50.36
2022-12-08T08:05:48.174Z,50.25
2022-12-08T08:08:14.710Z,50.58
2022-12-08T08:10:41.232Z,50.05
2022-12-08T08:13:08.656Z,50.30
2022-12-08T08:15:35.356Z,50.24
2022-12-08T08:18:01.999Z,49.91
2022-12-08T08:20:28.508Z,49.42
2022-12-08T08:22:55.073Z,49.73
2022-12-08T08:25:25.032Z,49.64
2022-12-08T08:27:51.728Z,49.14
2022-12-08T08:30:20.824Z,49.12
2022-12-08T08:32:48.972Z,48.98
2022-12-08T08:35:16.078Z,48.41
2022-12-08T08:37:48.335Z,47.50
2022-12-08T08:40:15.790Z,47.32
2022-12-08T08:42:42.285Z,46.95
2022-12-08T08:45:09.097Z,46.99
2022-12-08T08:47:35.724Z,46.87
2022-12-08T08:50:02.545Z,46.41
2022-12-08T08:52:29.386Z,46.02
2022-12-08T08:54:55.916Z,46.08
2022-12-08T08:57:25.800Z,45.96
2022-12-08T08:59:53.699Z,45.91
2022-12-08T09:02:21.199Z,46.28
2022-12-08T09:04:47.918Z,46.12
2022-12-08T09:07:15.945Z,46.01
2022-12-08T09:09:42.624Z,46.47
2022-12-08T09:12:09.914Z,45.99
2022-12-08T09:14:36.504Z,45.40
2022-12-08T09:17:03.036Z,45.08
2022-12-08T09:19:29.588Z,45.06
2022-12-08T09:21:56.188Z,44.68
2022-12-08T09:24:23.103Z,44.45
2022-12-08T09:26:49.945Z,44.47
2022-12-08T09:29:17.567Z,43.66
2022-12-08T09:31:44.292Z,43.24
2022-12-08T09:34:12.599Z,42.92
2022-12-08T09:36:40.016Z,42.38
2022-12-08T09:39:06.687Z,42.39
2022-12-08T09:41:42.039Z,42.11
2022-12-08T09:44:32.412Z,41.99
2022-12-08T09:47:01.423Z,41.66
2022-12-08T09:49:42.403Z,41.69
2022-12-08T09:52:25.830Z,41.67
2022-12-08T09:54:52.614Z,40.61
2022-12-08T09:57:22.465Z,40.50
2022-12-08T09:59:53.695Z,40.83
2022-12-08T10:02:23.551Z,40.89
2022-12-08T10:04:50.298Z,40.56
2022-12-08T10:07:30.704Z,40.68
2022-12-08T10:10:21.189Z,40.79
2022-12-08T10:12:53.905Z,40.71
2022-12-08T10:15:36.984Z,40.70
2022-12-08T10:18:12.355Z,40.34
2022-12-08T10:20:42.305Z,40.28
2022-12-08T10:23:24.190Z,40.96
2022-12-08T10:26:08.614Z,40.76
2022-12-08T10:28:37.746Z,40.20
2022-12-08T10:31:17.643Z,39.78
2022-12-08T10:33:45.231Z,39.62
2022-12-08T10:36:11.826Z,39.38
2022-12-08T10:38:40.086Z,39.38
2022-12-08T10:41:13.985Z,38.83
2022-12-08T10:43:46.654Z,38.52
2022-12-08T10:46:19.600Z,37.72
2022-12-08T10:49:24.225Z,37.43
2022-12-08T10:51:50.825Z,37.37
2022-12-08T10:54:43.761Z,37.23
2022-12-08T10:57:21.268Z,36.80
2022-12-08T10:59:47.884Z,36.34
2022-12-08T11:02:20.264Z,36.42
2022-12-08T11:04:47.396Z,34.32
2022-12-08T11:07:22.601Z,32.36
2022-12-08T11:09:55.337Z,32.82
2022-12-08T11:12:22.891Z,33.90
2022-12-08T11:15:03.309Z,34.56
2022-12-08T11:17:39.302Z,35.43
2022-12-08T11:20:09.008Z,36.75
2022-12-08T11:22:40.183Z,36.32
2022-12-08T11:25:16.035Z,36.17
2022-12-08T11:27:45.460Z,36.44
2022-12-08T11:30:38.873Z,38.12
2022-12-08T11:33:19.392Z,38.12
2022-12-08T11:35:51.742Z,38.22
2022-12-08T11:38:22.696Z,38.56
2022-12-08T11:40:57.175Z,39.18
2022-12-08T11:43:54.964Z,39.63
2022-12-08T11:46:26.431Z,39.86
2022-12-08T11:49:06.227Z,39.56
2022-12-08T11:51:38.272Z,39.59
2022-12-08T11:54:13.886Z,39.63
2022-12-08T11:56:45.560Z,39.31
2022-12-08T11:59:25.096Z,39.54
2022-12-08T12:01:51.777Z,39.11
2022-12-08T12:05:00.023Z,39.46
2022-12-08T12:07:26.712Z,39.88
2022-12-08T12:10:13.521Z,40.15
2022-12-08T12:12:45.907Z,40.10
2022-12-08T12:15:51.317Z,40.32
2022-12-08T12:18:29.760Z,39.98
2022-12-08T12:20:59.061Z,40.35
2022-12-08T12:23:47.290Z,39.46
2022-12-08T12:26:20.542Z,39.95
2022-12-08T12:28:55.816Z,39.83
2022-12-08T12:31:41.370Z,40.20
2022-12-08T12:34:13.621Z,40.41
2022-12-08T12:37:06.667Z,40.39
2022-12-08T12:39:47.068Z,39.87
2022-12-08T12:42:35.560Z,39.57
2022-12-08T12:45:16.047Z,39.73
2022-12-08T12:48:08.290Z,39.75
2022-12-08T12:50:52.153Z,39.11
2022-12-08T12:53:18.973Z,38.21
2022-12-08T12:55:45.420Z,38.49
2022-12-08T12:58:27.211Z,38.59
2022-12-08T13:01:15.312Z,38.51
2022-12-08T13:04:07.157Z,38.35
2022-12-08T13:06:42.270Z,38.82
2022-12-08T13:09:21.305Z,39.82
2022-12-08T13:11:52.549Z,40.60
2022-12-08T13:14:26.670Z,41.02
2022-12-08T13:16:56.102Z,40.82
2022-12-08T13:19:22.789Z,40.24
2022-12-08T13:21:49.347Z,40.77
2022-12-08T13:24:24.741Z,40.21
2022-12-08T13:27:11.197Z,38.24
2022-12-08T13:29:39.142Z,35.26
2022-12-08T13:32:08.672Z,34.22
2022-12-08T13:34:45.965Z,33.98
2022-12-08T13:37:33.154Z,34.88
2022-12-08T13:40:22.542Z,36.68
2022-12-08T13:43:18.167Z,37.19
2022-12-08T13:46:48.651Z,37.39
2022-12-08T13:57:32.764Z,38.86
2022-12-08T14:00:02.114Z,38.93
2022-12-08T14:02:47.788Z,39.10
2022-12-08T14:05:34.672Z,39.61
2022-12-08T14:08:50.386Z,40.07
2022-12-08T14:11:07.455Z,40.19
2022-12-08T14:13:34.631Z,39.84
2022-12-08T14:16:02.245Z,39.33
2022-12-08T14:18:31.646Z,39.13
2022-12-08T14:21:20.500Z,38.36
2022-12-08T14:23:48.044Z,39.19
2022-12-08T14:26:14.608Z,39.84
2022-12-08T14:28:44.803Z,39.70
2022-12-08T14:31:14.014Z,39.30
2022-12-08T14:33:43.927Z,39.36
2022-12-08T14:36:11.821Z,38.54
2022-12-08T14:38:38.576Z,39.10
2022-12-08T14:41:08.618Z,39.37
2022-12-08T14:43:35.477Z,39.81
2022-12-08T14:46:19.949Z,39.99
2022-12-08T14:48:46.573Z,40.21
2022-12-08T14:51:21.391Z,40.65
2022-12-08T14:53:56.163Z,40.67
2022-12-08T14:56:24.490Z,40.74
2022-12-08T14:59:22.869Z,40.90
2022-12-08T15:01:52.743Z,41.40
2022-12-08T15:04:24.445Z,41.78
2022-12-08T15:07:00.562Z,41.76
2022-12-08T15:09:37.773Z,42.24
2022-12-08T15:12:07.635Z,42.48
2022-12-08T15:14:37.139Z,42.90
2022-12-08T15:17:24.208Z,43.63
2022-12-08T15:19:58.179Z,44.05
2022-12-08T15:22:24.875Z,44.30
2022-12-08T15:24:51.394Z,44.82
2022-12-08T15:27:20.734Z,45.24
2022-12-08T15:29:47.986Z,45.52
2022-12-08T15:32:18.792Z,46.09
2022-12-08T15:34:45.388Z,45.94
2022-12-08T15:37:23.266Z,46.02
2022-12-08T15:39:50.555Z,46.37
2022-12-08T15:42:17.175Z,46.73
2022-12-08T15:44:44.216Z,46.82
